Flight Track Log - Related Links

Times and Time Zones

All times are in EDT time to prevent confusion due to time zone crossing. See the UPS98 flight status page for this flight to view local times or setup timezone preferences in your user account.

Time Position Orientation Groundspeed Altitude Reporting Facility
EDT Latitude Longitude Course Direction KTS MPH feet Rate Location/Type
Thu 02:28:17 PM 61.2100 -150.0210 338° Northwest 172 198 800  Level FlightAware ADS-B
Thu 02:28:38 PM 61.2260 -150.0400 330° Northwest 181 208 1,400 2,000 Climbing FlightAware ADS-B
Thu 02:29:02 PM 61.2430 -150.0640 326° Northwest 181 208 2,300 1,932 Climbing FlightAware ADS-B
Thu 02:29:37 PM 61.2590 -150.1220 300° West 203 234 3,300 1,429 Climbing FlightAware ADS-B
Thu 02:30:05 PM 61.2630 -150.2020 276° West 261 300 3,800 600 Climbing FlightAware ADS-B
Thu 02:30:27 PM 61.2660 -150.2580 276° West 262 302 3,800 125 Level FlightAware ADS-B
Thu 02:30:53 PM 61.2700 -150.3210 278° West 261 300 3,900 1,286 Climbing FlightAware ADS-B
Thu 02:31:23 PM 61.2710 -150.3970 272° West 263 303 5,000 2,690 Climbing FlightAware ADS-B
Thu 02:31:51 PM 61.2720 -150.4690 272° West 271 312 6,500 3,294 Climbing FlightAware ADS-B
Thu 02:32:14 PM 61.2730 -150.5280 272° West 270 311 7,800 3,231 Climbing FlightAware ADS-B
Thu 02:32:43 PM 61.2740 -150.6030 272° West 272 313 9,300 2,862 Climbing FlightAware ADS-B
Thu 02:33:19 PM 61.2750 -150.6990 271° West 287 330 10,900 2,000 Climbing FlightAware ADS-B
Thu 02:34:07 PM 61.2770 -150.8400 272° West 332 382 12,100 1,537 Climbing FlightAware ADS-B
Thu 02:34:41 PM 61.2780 -150.9530 271° West 361 415 13,000 2,057 Climbing FlightAware ADS-B
Thu 02:35:17 PM 61.2790 -151.0810 271° West 372 428 14,500 2,634 Climbing FlightAware ADS-B
Thu 02:36:03 PM 61.2800 -151.2450 271° West 376 433 16,600 2,561 Climbing FlightAware ADS-B
Thu 02:36:39 PM 61.2810 -151.3780 271° West 385 443 18,000 2,289 Climbing FlightAware ADS-B
Thu 02:37:19 PM 61.2820 -151.5290 271° West 393 452 19,500 1,950 Climbing FlightAware ADS-B
Thu 02:37:59 PM 61.2830 -151.6800 271° West 406 467 20,600 1,909 Climbing FlightAware ADS-B
Thu 02:38:47 PM 61.2840 -151.8680 271° West 412 474 22,300 1,953 Climbing FlightAware ADS-B
Thu 02:39:25 PM 61.2840 -152.0190 270° West 418 481 23,400 1,950 Climbing FlightAware ADS-B
Thu 02:40:07 PM 61.2850 -152.1890 271° West 420 483 24,900 1,976 Climbing FlightAware ADS-B
Thu 02:40:47 PM 61.2850 -152.3510 270° West 422 486 26,100 1,538 Climbing FlightAware ADS-B
Thu 02:41:25 PM 61.2860 -152.5030 271° West 427 491 26,900 1,683 Climbing FlightAware ADS-B
Thu 02:42:09 PM 61.2860 -152.6850 270° West 424 488 28,400 2,096 Climbing FlightAware ADS-B
Thu 02:42:48 PM 61.2860 -152.8390 270° West 416 479 29,800 1,865 Climbing FlightAware ADS-B
Thu 02:43:23 PM 61.2860 -152.9740 270° West 415 478 30,700 1,200 Climbing FlightAware ADS-B
Thu 02:44:23 PM 61.2860 -153.2220 270° West 428 493 31,700 1,075 Climbing FlightAware ADS-B
Thu 02:45:09 PM 61.2850 -153.4110 269° West 430 495 32,600 1,281 Climbing FlightAware ADS-B
Thu 02:45:52 PM 61.2850 -153.5840 270° West 427 491 33,600 1,105 Climbing FlightAware ADS-B
Thu 02:46:25 PM 61.2840 -153.7230 269° West 423 487 34,000 312 Climbing FlightAware ADS-B
Thu 02:47:09 PM 61.2830 -153.9000 269° West 419 482 34,000  Level FlightAware ADS-B
Thu 02:47:47 PM 61.2810 -154.0520 268° West 423 487 34,000  Level FlightAware ADS-B
Thu 02:48:23 PM 61.2800 -154.1980 269° West 426 490 34,000  Level FlightAware ADS-B
Thu 02:49:09 PM 61.2780 -154.3880 269° West 426 490 34,000  Level FlightAware ADS-B
Thu 02:49:49 PM 61.2760 -154.5520 269° West 426 490 34,000 357 Level FlightAware ADS-B
Thu 02:50:33 PM 61.2740 -154.7290 269° West 422 486 34,500 714 Climbing FlightAware ADS-B
Thu 02:51:13 PM 61.2710 -154.8910 268° West 427 491 35,000 480 Climbing FlightAware ADS-B
Thu 02:52:13 PM 61.2680 -155.1130 268° West 427 491 35,300 186 Climbing FlightAware ADS-B
Thu 02:52:50 PM 61.2660 -155.2420 268° West 427 491 35,300  Level FlightAware ADS-B
Thu 02:53:26 PM 61.2630 -155.3680 267° West 427 491 35,300  Level FlightAware ADS-B
Thu 02:54:14 PM 61.2610 -155.5350 269° West 427 491 35,300  Level FlightAware ADS-B
Thu 02:55:14 PM 61.2570 -155.7440 268° West 427 491 35,300  Level FlightAware ADS-B
Thu 02:55:51 PM 61.2550 -155.8740 268° West 427 491 35,300  Level FlightAware ADS-B
Thu 02:56:39 PM 61.2520 -156.0410 268° West 427 491 35,300  Level FlightAware ADS-B
Thu 02:57:15 PM 61.2500 -156.1670 268° West 427 491 35,300  Level FlightAware ADS-B
Thu 02:58:03 PM 61.2470 -156.3340 268° West 427 491 35,300  Level FlightAware ADS-B
Thu 02:58:39 PM 61.2450 -156.4600 268° West 427 491 35,300  Level FlightAware ADS-B
Thu 02:59:27 PM 61.2420 -156.6270 268° West 427 491 35,300  Level FlightAware ADS-B
Thu 03:00:04 PM 61.2400 -156.7560 268° West 427 491 35,300  Level FlightAware ADS-B
Thu 03:01:02 PM 61.2360 -156.9580 268° West 427 491 35,300 304 Level FlightAware ADS-B
Thu 03:02:22 PM 61.2500 -157.5833 268° West 440 506 36,000 300 Climbing Anchorage Center
Thu 03:03:22 PM 61.2500 -157.8333 270° West 440 506 36,000  Level Anchorage Center
Thu 03:04:22 PM 61.2333 -158.0833 262° West 440 506 36,000  Level Anchorage Center
Thu 03:05:23 PM 61.2333 -158.3333 270° West 430 495 36,000  Level Anchorage Center
Thu 03:06:23 PM 61.2333 -158.5833 270° West 440 506 36,000  Level Anchorage Center
Thu 03:07:23 PM 61.2333 -158.8500 270° West 440 506 36,000  Level Anchorage Center
Thu 03:08:23 PM 61.2333 -159.1000 270° West 450 518 36,000  Level Anchorage Center
Thu 03:09:24 PM 61.2167 -159.3667 263° West 440 506 36,000  Level Anchorage Center
Thu 03:10:24 PM 61.2167 -159.6167 270° West 440 506 36,000  Level Anchorage Center
Thu 03:11:24 PM 61.2167 -159.8667 270° West 430 495 36,000  Level Anchorage Center
Thu 03:12:25 PM 61.2167 -160.1333 270° West 440 506 36,000  Level Anchorage Center
Thu 03:13:25 PM 61.2000 -160.3833 262° West 440 506 36,000  Level Anchorage Center
Thu 03:14:25 PM 61.2000 -160.6333 270° West 440 506 36,000  Level Anchorage Center
Thu 03:15:26 PM 61.1833 -160.8833 262° West 450 518 36,000  Level Anchorage Center
Thu 03:16:26 PM 61.1833 -161.1500 270° West 450 518 36,000  Level Anchorage Center
Thu 03:17:26 PM 61.1667 -161.4167 263° West 450 518 36,000  Level Anchorage Center
Thu 03:18:27 PM 61.1667 -161.7167 270° West 460 529 36,000  Level Anchorage Center
Thu 03:19:27 PM 61.1500 -161.9833 263° West 440 506 36,000  Level Anchorage Center
Thu 03:20:28 PM 61.1333 -162.2333 262° West 440 506 36,000  Level Anchorage Center
Thu 03:21:28 PM 61.1333 -162.5000 270° West 450 518 36,000  Level Anchorage Center
Thu 03:22:28 PM 61.1167 -162.7667 263° West 450 518 36,000  Level Anchorage Center
Thu 03:23:29 PM 61.1167 -162.9667 270° West 440 506 36,000  Level Anchorage Center
Thu 03:24:29 PM 61.0667 -163.2500 250° West 440 506 36,000  Level Anchorage Center
Thu 03:25:29 PM 61.0333 -163.5000 255° West 440 506 36,000  Level Anchorage Center
Thu 03:26:30 PM 61.0000 -163.7500 255° West 440 506 36,000  Level Anchorage Center
Thu 03:27:30 PM 60.9667 -164.0000 255° West 440 506 36,000  Level Anchorage Center
Thu 03:28:30 PM 60.9333 -164.2500 255° West 450 518 36,000  Level Anchorage Center
Thu 03:29:31 PM 60.8833 -164.5000 248° West 450 518 36,000  Level Anchorage Center
Thu 03:30:31 PM 60.8500 -164.7500 255° West 440 506 36,000  Level Anchorage Center
Thu 03:31:31 PM 60.8167 -164.9833 254° West 440 506 36,000  Level Anchorage Center
Thu 03:32:31 PM 60.7833 -165.2333 255° West 450 518 36,000  Level Anchorage Center
Thu 03:33:32 PM 60.7333 -165.4667 246° West 440 506 36,000  Level Anchorage Center
Thu 03:34:32 PM 60.7000 -165.7167 255° West 440 506 36,000  Level Anchorage Center
Thu 03:35:33 PM 60.6667 -165.9500 254° West 440 506 36,000  Level Anchorage Center
Thu 03:36:33 PM 60.6167 -166.2000 248° West 440 506 36,000  Level Anchorage Center
Thu 03:37:46 PM 60.5667 -166.4833 250° West 440 506 36,000  Level Anchorage Center
Thu 03:38:46 PM 60.5333 -166.7167 254° West 450 518 36,000  Level Anchorage Center
Thu 03:39:46 PM 60.4833 -166.9500 247° West 440 506 36,000  Level Anchorage Center
Thu 03:40:46 PM 60.4500 -167.2000 255° West 440 506 36,000  Level Anchorage Center
Thu 03:41:46 PM 60.4000 -167.4333 247° West 450 518 36,000  Level Anchorage Center
Thu 03:42:46 PM 60.3667 -167.6833 255° West 450 518 36,000  Level Anchorage Center
Thu 03:43:46 PM 60.3167 -167.9167 247° West 450 518 36,000  Level Anchorage Center
Thu 03:44:46 PM 60.2833 -168.1500 254° West 450 518 36,000  Level Anchorage Center
Thu 03:45:46 PM 60.2333 -168.3833 247° West 440 506 36,000  Level Anchorage Center
Thu 03:46:46 PM 60.1833 -168.6167 247° West 450 518 36,000  Level Anchorage Center
Thu 03:47:46 PM 60.1500 -168.8667 255° West 450 518 36,000  Level Anchorage Center
Thu 03:48:46 PM 60.1000 -169.1000 247° West 450 518 36,000  Level Anchorage Center
Thu 03:49:46 PM 60.0500 -169.3333 247° West 450 518 36,000  Level Anchorage Center
Thu 03:50:46 PM 60.0167 -169.5167 250° West 450 518 36,000  Level Anchorage Center
Thu 03:51:47 PM 59.9667 -169.8000 251° West 450 518 36,000  Level Anchorage Center
Thu 03:52:47 PM 59.9167 -170.0333 247° West 440 506 36,000  Level Anchorage Center
Thu 03:53:47 PM 59.8833 -170.2167 250° West 450 518 36,000  Level Anchorage Center
Thu 03:54:47 PM 59.8333 -170.4833 250° West 460 529 36,000  Level Anchorage Center
Thu 03:55:46 PM 59.7833 -170.7167 247° West 460 529 36,000  Level Anchorage Center
Thu 03:56:47 PM 59.7333 -170.9500 247° West 460 529 36,000  Level Anchorage Center
Thu 03:57:47 PM 59.6833 -171.1833 247° West 460 529 36,000  Level Anchorage Center
Thu 03:58:47 PM 59.6333 -171.4167 247° West 460 529 36,000  Level Anchorage Center
Thu 03:59:47 PM 59.5833 -171.6500 247° West 460 529 36,000  Level Anchorage Center
Thu 04:00:47 PM 59.5333 -171.8833 247° West 450 518 36,000  Level Anchorage Center
Thu 04:01:47 PM 59.4833 -172.1167 247° West 460 529 36,000  Level Anchorage Center
Thu 04:02:47 PM 59.4333 -172.3333 246° West 440 506 36,000  Level Anchorage Center
Thu 04:03:47 PM 59.4000 -172.5667 254° West 440 506 36,000  Level Anchorage Center
Thu 04:04:48 PM 59.3500 -172.7833 246° West 440 506 36,000  Level Anchorage Center
Thu 04:05:47 PM 59.3000 -173.0333 249° West 460 529 36,000  Level Anchorage Center
Thu 04:06:47 PM 59.2667 -173.2000 249° West 450 518 36,000  Level Anchorage Center
Thu 04:07:47 PM 59.2000 -173.4833 245° Southwest 460 529 36,000  Level Anchorage Center
Thu 04:08:47 PM 59.1500 -173.7167 247° West 460 529 36,000  Level Anchorage Center
Thu 04:09:47 PM 59.1000 -173.9500 247° West 450 518 36,000  Level Anchorage Center
Thu 04:10:48 PM 59.0500 -174.1667 246° West 460 529 36,000  Level Anchorage Center
Thu 04:11:47 PM 59.0000 -174.4000 247° West 450 518 36,000  Level Anchorage Center
Thu 04:12:48 PM 58.9500 -174.6167 246° West 440 506 36,000  Level Anchorage Center
Thu 04:13:47 PM 58.9000 -174.8500 248° West 460 529 36,000  Level Anchorage Center
Thu 04:14:48 PM 58.8500 -175.0833 248° West 460 529 36,000  Level Anchorage Center
Thu 04:15:48 PM 58.8000 -175.3000 246° West 460 529 36,000  Level Anchorage Center
Thu 04:16:48 PM 58.7500 -175.5333 248° West 460 529 36,000  Level Anchorage Center
Thu 04:17:48 PM 58.7000 -175.7667 248° West 460 529 36,000  Level Anchorage Center
Thu 04:18:48 PM 58.6500 -175.9833 246° West 460 529 36,000  Level Anchorage Center
Thu 04:19:48 PM 58.5833 -176.2000 240° Southwest 460 529 36,000  Level Anchorage Center
Thu 04:20:48 PM 58.5333 -176.4333 248° West 460 529 36,000  Level Anchorage Center
Thu 04:21:48 PM 58.4833 -176.6500 246° West 460 529 36,000  Level Anchorage Center
Thu 04:22:48 PM 58.4333 -176.8667 246° West 450 518 36,000  Level Anchorage Center
Thu 04:23:48 PM 58.3667 -177.1000 241° Southwest 470 541 36,000  Level Anchorage Center
Thu 04:24:48 PM 58.3167 -177.2833 243° Southwest 480 552 36,000  Level Anchorage Center
Thu 04:26:02 PM 58.2667 -177.5833 244° Southwest 470 541 36,000  Level Anchorage Center
Thu 04:32:00 PM 57.9145 -178.9331 243° Southwest 470 541 36,000  Level FlightAware Transoceanic
Thu 04:33:00 PM 57.8544 -179.1555 243° Southwest 470 541 36,000  Level FlightAware Transoceanic
Thu 04:34:00 PM 57.7940 -179.3771 243° Southwest 470 541 36,000  Level FlightAware Transoceanic
Thu 04:35:00 PM 57.7331 -179.5980 243° Southwest 470 541 36,000  Level FlightAware Transoceanic
Thu 04:36:00 PM 57.6719 -179.8181 242° Southwest 470 541 36,000  Level FlightAware Transoceanic
Thu 04:36:33 PM 57.7000 -179.7000 243° Southwest 474 545 36,000  Level Anchorage Center
Thu 04:37:00 PM 57.6103 179.9625 242° Southwest 470 541 36,000  Level FlightAware Transoceanic
Thu 04:38:00 PM 57.5483 179.7438 242° Southwest 470 541 36,000  Level FlightAware Transoceanic
Thu 04:39:00 PM 57.4859 179.5259 242° Southwest 470 541 36,000  Level FlightAware Transoceanic
Thu 04:40:00 PM 57.4232 179.3088 242° Southwest 470 541 36,000  Level FlightAware Transoceanic
Thu 04:41:00 PM 57.3601 179.0923 241° Southwest 470 541 36,000  Level FlightAware Transoceanic
Thu 04:42:00 PM 57.2571 178.7571 241° Southwest 474 545 36,000  Level FlightAware Transoceanic
Thu 04:43:00 PM 57.1923 178.5397 241° Southwest 474 545 36,000  Level FlightAware Transoceanic
Thu 04:44:00 PM 57.1272 178.3231 241° Southwest 474 545 36,000  Level FlightAware Transoceanic
Thu 04:45:00 PM 57.0616 178.1073 241° Southwest 474 545 36,000  Level FlightAware Transoceanic
Thu 04:45:15 PM 57.1000 178.2000 241° Southwest 487 560 36,000  Level Anchorage Center
Thu 04:46:00 PM 56.9957 177.8922 241° Southwest 474 545 36,000  Level FlightAware Transoceanic
Thu 04:47:00 PM 56.9294 177.6779 240° Southwest 474 545 36,000  Level FlightAware Transoceanic
Thu 04:48:00 PM 56.8628 177.4643 240° Southwest 474 545 36,000  Level FlightAware Transoceanic
Thu 04:49:00 PM 56.7958 177.2515 240° Southwest 474 545 36,000  Level FlightAware Transoceanic
Thu 04:49:08 PM 56.8333 177.3500 240° Southwest 477 549 36,000  Level Anchorage Center
Thu 04:50:00 PM 56.7284 177.0395 240° Southwest 474 545 36,000  Level FlightAware Transoceanic
Thu 04:51:00 PM 56.6922 176.9005 240° Southwest 487 560 36,000  Level FlightAware Transoceanic
Thu 04:52:00 PM 56.6229 176.6867 239° Southwest 487 560 36,000  Level FlightAware Transoceanic
Thu 04:53:00 PM 56.5532 176.4737 239° Southwest 487 560 36,000  Level FlightAware Transoceanic
Thu 04:54:00 PM 56.4832 176.2614 239° Southwest 487 560 36,000  Level FlightAware Transoceanic
Thu 04:55:00 PM 56.4316 176.1118 239° Southwest 477 549 36,000  Level FlightAware Transoceanic
Thu 04:55:20 PM 56.4333 176.1167 239° Southwest 474 545 36,000  Level Anchorage Center
Thu 04:56:00 PM 56.3634 175.9080 239° Southwest 477 549 36,000  Level FlightAware Transoceanic
Thu 04:57:00 PM 56.2950 175.7049 239° Southwest 477 549 36,000  Level FlightAware Transoceanic
Thu 04:58:00 PM 56.2262 175.5025 238° Southwest 477 549 36,000  Level FlightAware Transoceanic
Thu 04:59:00 PM 56.1570 175.3009 238° Southwest 477 549 36,000  Level FlightAware Transoceanic
Thu 05:00:00 PM 56.0876 175.1000 238° Southwest 477 549 36,000  Level FlightAware Transoceanic
Thu 05:01:00 PM 56.0191 174.9032 238° Southwest 474 545 36,000  Level FlightAware Transoceanic
Thu 05:02:00 PM 55.9489 174.7036 238° Southwest 474 545 36,000  Level FlightAware Transoceanic
Thu 05:02:41 PM 55.8333 174.4000 237° Southwest 510 587 36,000  Level Anchorage Center
Thu 05:03:00 PM 55.8784 174.5046 238° Southwest 474 545 36,000  Level FlightAware Transoceanic
Thu 05:03:40 PM 55.7667 174.2167 237° Southwest 510 587 36,000  Level Anchorage Center
Thu 05:04:00 PM 55.8075 174.3064 237° Southwest 474 545 36,000  Level FlightAware Transoceanic
Thu 05:04:40 PM 55.6833 173.9833 238° Southwest 510 587 36,000  Level Anchorage Center
Thu 05:05:00 PM 55.7364 174.1088 237° Southwest 474 545 36,000  Level FlightAware Transoceanic
Thu 05:05:41 PM 55.6167 173.8000 237° Southwest 510 587 36,000  Level Anchorage Center
Thu 05:06:00 PM 55.6649 173.9120 237° Southwest 474 545 36,000  Level FlightAware Transoceanic
Thu 05:06:41 PM 55.5333 173.5667 238° Southwest 510 587 36,000  Level Anchorage Center
Thu 05:07:00 PM 55.5931 173.7160 237° Southwest 474 545 36,000  Level FlightAware Transoceanic
Thu 05:07:41 PM 55.4667 173.3833 237° Southwest 510 587 36,000  Level Anchorage Center
Thu 05:08:00 PM 55.5210 173.5206 237° Southwest 474 545 36,000  Level FlightAware Transoceanic
Thu 05:08:41 PM 55.3833 173.1500 238° Southwest 510 587 36,000  Level Anchorage Center
Thu 05:09:41 PM 55.2833 172.9167 233° Southwest 520 598 36,000  Level Anchorage Center
Thu 05:10:41 PM 55.2167 172.7500 235° Southwest 510 587 36,000  Level Anchorage Center
Thu 05:11:41 PM 55.1333 172.5167 238° Southwest 510 587 36,000  Level Anchorage Center
Thu 05:12:41 PM 55.0667 172.3500 235° Southwest 500 575 36,000  Level Anchorage Center
Thu 05:13:41 PM 54.9833 172.1167 238° Southwest 510 587 36,000  Level Anchorage Center
Thu 05:14:41 PM 54.9000 171.9333 232° Southwest 520 598 36,000  Level Anchorage Center
Thu 05:15:41 PM 54.8167 171.7167 236° Southwest 520 598 36,000  Level Anchorage Center
Thu 05:16:42 PM 54.7500 171.5333 238° Southwest 520 598 36,000  Level Anchorage Center
Thu 05:17:42 PM 54.6500 171.3167 231° Southwest 530 610 36,000  Level Anchorage Center
Thu 05:18:41 PM 54.5500 171.1000 232° Southwest 520 598 36,000  Level Anchorage Center
Thu 05:19:42 PM 54.4833 170.9167 238° Southwest 520 598 36,000  Level Anchorage Center
Thu 05:20:42 PM 54.3833 170.7000 232° Southwest 520 598 36,000  Level Anchorage Center
Thu 05:21:42 PM 54.3167 170.5333 236° Southwest 520 598 36,000  Level Anchorage Center
Thu 05:22:42 PM 54.2167 170.3167 232° Southwest 520 598 36,000  Level Anchorage Center
Thu 05:23:42 PM 54.1500 170.1500 236° Southwest 510 587 36,000  Level Anchorage Center
Thu 05:24:42 PM 54.0500 169.9333 232° Southwest 500 575 36,000  Level Anchorage Center
Thu 05:25:42 PM 53.9667 169.7167 237° Southwest 520 598 36,000  Level Anchorage Center
Thu 05:26:42 PM 53.8833 169.5500 230° Southwest 510 587 36,000  Level Anchorage Center
Thu 05:27:42 PM 53.8000 169.3500 235° Southwest 520 598 36,000  Level Anchorage Center
Thu 05:28:42 PM 53.7167 169.1667 233° Southwest 520 598 36,000  Level Anchorage Center
Thu 05:29:42 PM 53.6500 168.9500 243° Southwest 520 598 36,000  Level Anchorage Center
Thu 05:31:42 PM 53.5167 168.5500 241° Southwest 500 575 36,000  Level Anchorage Center
Thu 05:34:00 PM 53.4308 168.3166 238° Southwest  Level FlightAware Approximate
Thu 05:41:00 PM 52.9756 167.0383 240° Southwest  Level FlightAware Approximate
Thu 05:42:00 PM 52.9097 166.8577 239° Southwest  Level FlightAware Approximate
Thu 05:43:00 PM 52.8435 166.6777 239° Southwest  Level FlightAware Approximate
Thu 05:43:07 PM 52.7333 166.3833 238° Southwest 473 544 36,000  Level Anchorage Center
Thu 05:44:00 PM 52.7770 166.4982 239° Southwest  Level FlightAware Approximate
Thu 05:45:00 PM 52.7103 166.3192 238° Southwest  Level FlightAware Approximate
Thu 05:46:00 PM 52.6432 166.1408 238° Southwest  Level FlightAware Approximate
Thu 05:47:00 PM 52.5760 165.9629 238° Southwest  Level FlightAware Approximate
Thu 05:48:00 PM 52.5084 165.7856 238° Southwest  Level FlightAware Approximate
Thu 05:49:00 PM 52.3084 165.2688 237° Southwest 473 544 36,000  Level FlightAware Transoceanic
Thu 05:50:00 PM 52.2366 165.0852 237° Southwest 473 544 36,000  Level FlightAware Transoceanic
Thu 05:51:00 PM 52.1645 164.9021 237° Southwest 473 544 36,000  Level FlightAware Transoceanic
Thu 05:52:00 PM 52.0921 164.7196 237° Southwest 473 544 36,000  Level FlightAware Transoceanic
Thu 05:52:24 PM 52.0333 164.5500 237° Southwest 495 570 36,000  Level Anchorage Center
Thu 05:53:00 PM 52.0195 164.5378 237° Southwest 473 544 36,000  Level FlightAware Transoceanic
Thu 05:54:00 PM 51.9465 164.3565 237° Southwest 473 544 36,000  Level FlightAware Transoceanic
Thu 05:55:00 PM 51.8733 164.1758 237° Southwest 473 544 36,000  Level FlightAware Transoceanic
Thu 05:56:00 PM 51.7998 163.9957 236° Southwest 473 544 36,000  Level FlightAware Transoceanic
Thu 05:57:00 PM 51.7260 163.8161 236° Southwest 473 544 36,000  Level FlightAware Transoceanic
Thu 05:57:24 PM 51.6500 163.6500 236° Southwest 478 550 36,000  Level Anchorage Center
Thu 05:58:00 PM 51.5888 163.4683 236° Southwest 495 570 36,000  Level FlightAware Transoceanic
Thu 05:59:00 PM 51.5138 163.2901 236° Southwest 495 570 36,000  Level FlightAware Transoceanic
Thu 06:00:00 PM 51.4385 163.1124 236° Southwest 495 570 36,000  Level FlightAware Transoceanic
Thu 06:01:00 PM 51.3629 162.9354 236° Southwest 495 570 36,000  Level FlightAware Transoceanic
Thu 06:02:00 PM 51.2870 162.7589 235° Southwest 495 570 36,000  Level FlightAware Transoceanic
Thu 06:02:06 PM 51.2833 162.7667 236° Southwest 483 556 36,000  Level Anchorage Center
Thu 06:03:00 PM 51.2006 162.5855 235° Southwest 478 550 36,000  Level FlightAware Transoceanic
Thu 06:04:00 PM 51.1248 162.4101 235° Southwest 478 550 36,000  Level FlightAware Transoceanic
Thu 06:05:00 PM 51.0487 162.2353 235° Southwest 478 550 36,000  Level FlightAware Transoceanic
Thu 06:06:00 PM 50.9724 162.0610 235° Southwest 478 550 36,000  Level FlightAware Transoceanic
Thu 06:07:00 PM 50.8957 161.8874 235° Southwest 478 550 36,000  Level FlightAware Transoceanic
Thu 06:08:00 PM 50.8239 161.7178 235° Southwest 483 556 36,000  Level FlightAware Transoceanic
Thu 06:09:00 PM 50.7464 161.5450 235° Southwest 483 556 36,000  Level FlightAware Transoceanic
Thu 06:10:00 PM 50.6687 161.3727 234° Southwest 483 556 36,000  Level FlightAware Transoceanic
Thu 06:11:00 PM 50.5907 161.2011 234° Southwest 483 556 36,000  Level FlightAware Transoceanic
Thu 06:12:00 PM 50.5125 161.0300 234° Southwest 483 556 36,000  Level FlightAware Transoceanic
Thu 06:12:02 PM 50.5333 161.0667 234° Southwest 491 565 36,000  Level Anchorage Center
Thu 06:13:00 PM 50.4340 160.8595 234° Southwest 483 556 36,000  Level FlightAware Transoceanic
Thu 06:14:00 PM 50.3553 160.6895 234° Southwest 483 556 36,000  Level FlightAware Transoceanic
Thu 06:15:00 PM 50.2763 160.5201 234° Southwest 483 556 36,000  Level FlightAware Transoceanic
Thu 06:16:00 PM 50.1971 160.3513 234° Southwest 483 556 36,000  Level FlightAware Transoceanic
Thu 06:16:05 PM 50.2000 160.3833 234° Southwest 491 565 36,000  Level Anchorage Center
Thu 06:17:00 PM 50.1176 160.1830 234° Southwest 483 556 36,000  Level FlightAware Transoceanic
Thu 06:18:00 PM 50.0166 159.9675 233° Southwest 491 565 36,000  Level FlightAware Transoceanic
Thu 06:19:00 PM 49.9419 159.8124 233° Southwest 491 565 36,000  Level FlightAware Transoceanic
Thu 06:20:00 PM 49.8670 159.6578 233° Southwest 491 565 36,000  Level FlightAware Transoceanic
Thu 06:21:00 PM 49.7920 159.5036 233° Southwest 491 565 36,000  Level FlightAware Transoceanic
Thu 06:22:00 PM 49.6376 159.1886 233° Southwest 491 565 36,000  Level FlightAware Transoceanic
Thu 06:23:00 PM 49.5583 159.0276 233° Southwest 491 565 36,000  Level FlightAware Transoceanic
Thu 06:24:00 PM 49.4787 158.8672 233° Southwest 491 565 36,000  Level FlightAware Transoceanic
Thu 06:25:00 PM 49.3989 158.7073 232° Southwest 491 565 36,000  Level FlightAware Transoceanic
Thu 06:26:00 PM 49.3190 158.5480 232° Southwest 491 565 36,000  Level FlightAware Transoceanic
Thu 06:27:00 PM 49.2388 158.3891 232° Southwest 491 565 36,000  Level FlightAware Transoceanic
Thu 06:28:00 PM 49.1583 158.2308 232° Southwest 491 565 36,000  Level FlightAware Transoceanic
Thu 06:29:00 PM 49.0777 158.0730 232° Southwest 491 565 36,000  Level FlightAware Transoceanic
Thu 06:30:00 PM 48.9968 157.9156 232° Southwest 491 565 36,000  Level FlightAware Transoceanic
Thu 06:31:00 PM 48.9158 157.7589 232° Southwest 491 565 36,000  Level FlightAware Transoceanic
Thu 06:32:00 PM 48.8345 157.6026 232° Southwest 491 565 36,000  Level FlightAware Transoceanic
Thu 06:33:00 PM 48.7530 157.4468 231° Southwest 491 565 36,000  Level FlightAware Transoceanic
Thu 06:34:00 PM 48.6713 157.2915 231° Southwest 491 565 36,000  Level FlightAware Transoceanic
Thu 06:35:00 PM 48.5894 157.1367 231° Southwest 491 565 36,000  Level FlightAware Transoceanic
Thu 06:36:00 PM 48.5073 156.9825 231° Southwest 491 565 36,000  Level FlightAware Transoceanic
Thu 06:37:00 PM 48.4250 156.8287 231° Southwest 491 565 36,000  Level FlightAware Transoceanic
Thu 06:38:00 PM 48.3425 156.6754 231° Southwest 491 565 36,000  Level FlightAware Transoceanic
Thu 06:39:00 PM 48.2598 156.5226 231° Southwest 491 565 36,000  Level FlightAware Transoceanic
Thu 06:40:00 PM 48.1768 156.3704 231° Southwest 491 565 36,000  Level FlightAware Transoceanic
Thu 06:41:00 PM 48.0937 156.2186 231° Southwest 491 565 36,000  Level FlightAware Transoceanic
Thu 06:42:00 PM 48.0104 156.0673 230° Southwest 491 565 36,000  Level FlightAware Transoceanic
Thu 06:43:00 PM 47.9269 155.9165 230° Southwest 491 565 36,000  Level FlightAware Transoceanic
Thu 06:44:00 PM 47.8431 155.7661 230° Southwest 491 565 36,000  Level FlightAware Transoceanic
Thu 06:45:00 PM 47.7592 155.6163 230° Southwest 491 565 36,000  Level FlightAware Transoceanic
Thu 06:46:00 PM 47.6751 155.4669 230° Southwest 491 565 36,000  Level FlightAware Transoceanic
Thu 06:47:00 PM 47.5908 155.3181 230° Southwest 491 565 36,000  Level FlightAware Transoceanic
Thu 06:48:00 PM 47.5063 155.1697 230° Southwest 491 565 36,000  Level FlightAware Transoceanic
Thu 06:49:00 PM 47.4216 155.0218 230° Southwest 491 565 36,000  Level FlightAware Transoceanic
Thu 06:50:00 PM 47.3368 154.8743 230° Southwest 491 565 36,000  Level FlightAware Transoceanic
Thu 06:51:00 PM 47.2517 154.7274 229° Southwest 491 565 36,000  Level FlightAware Transoceanic
Thu 06:52:00 PM 47.1665 154.5809 229° Southwest 491 565 36,000  Level FlightAware Transoceanic
Thu 06:53:00 PM 47.0810 154.4348 229° Southwest 491 565 36,000  Level FlightAware Transoceanic
Thu 06:54:00 PM 46.9954 154.2893 229° Southwest 491 565 36,000  Level FlightAware Transoceanic
Thu 06:55:00 PM 46.9096 154.1442 229° Southwest 491 565 36,000  Level FlightAware Transoceanic
Thu 06:56:00 PM 46.8236 153.9996 229° Southwest 491 565 36,000  Level FlightAware Transoceanic
Thu 06:57:00 PM 46.7374 153.8554 229° Southwest 491 565 36,000  Level FlightAware Transoceanic
Thu 06:58:00 PM 46.6511 153.7117 229° Southwest 491 565 36,000  Level FlightAware Transoceanic
Thu 06:59:00 PM 46.5645 153.5684 229° Southwest 491 565 36,000  Level FlightAware Transoceanic
Thu 07:00:00 PM 46.4779 153.4256 229° Southwest 491 565 36,000  Level FlightAware Transoceanic
Thu 07:01:00 PM 46.3910 153.2833 228° Southwest 491 565 36,000  Level FlightAware Transoceanic
Thu 07:02:00 PM 46.3039 153.1414 228° Southwest 491 565 36,000 29 Level FlightAware Transoceanic
Thu 07:03:00 PM 46.2192 153.0041 228° Southwest  Level FlightAware Approximate
Thu 07:04:00 PM 46.1343 152.8673 228° Southwest  Level FlightAware Approximate
Thu 07:05:00 PM 46.1364 152.8719 228° Southwest  Level FlightAware Approximate
Thu 07:06:00 PM 46.0508 152.7360 228° Southwest  Level FlightAware Approximate
Thu 07:07:00 PM 45.9651 152.6006 228° Southwest  Level FlightAware Approximate
Thu 07:08:00 PM 45.8793 152.4656 228° Southwest  Level FlightAware Approximate
Thu 07:09:00 PM 45.7933 152.3310 228° Southwest  Level FlightAware Approximate
Thu 07:10:00 PM 45.7071 152.1969 227° Southwest  Level FlightAware Approximate
Thu 07:11:00 PM 45.6208 152.0631 227° Southwest  Level FlightAware Approximate
Thu 07:12:00 PM 45.5343 151.9298 227° Southwest  Level FlightAware Approximate
Thu 07:13:00 PM 45.4476 151.7968 227° Southwest  Level FlightAware Approximate
Thu 07:14:00 PM 45.3608 151.6643 227° Southwest  Level FlightAware Approximate
Thu 07:15:00 PM 45.2739 151.5322 227° Southwest  Level FlightAware Approximate
Thu 07:16:00 PM 45.1868 151.4005 227° Southwest  Level FlightAware Approximate
Thu 07:17:00 PM 45.0995 151.2692 227° Southwest  Level FlightAware Approximate
Thu 07:18:00 PM 45.0121 151.1383 227° Southwest  Level FlightAware Approximate
Thu 07:19:00 PM 44.9246 151.0078 227° Southwest  Level FlightAware Approximate
Thu 07:20:00 PM 44.8369 150.8777 226° Southwest  Level FlightAware Approximate
Thu 07:21:00 PM 44.7490 150.7479 226° Southwest  Level FlightAware Approximate
Thu 07:22:00 PM 44.6610 150.6186 226° Southwest  Level FlightAware Approximate
Thu 07:23:00 PM 44.5729 150.4897 226° Southwest  Level FlightAware Approximate
Thu 07:24:00 PM 44.4846 150.3611 226° Southwest  Level FlightAware Approximate
Thu 07:25:00 PM 44.3962 150.2330 226° Southwest  Level FlightAware Approximate
Thu 07:26:00 PM 44.3076 150.1052 226° Southwest  Level FlightAware Approximate
Thu 07:27:00 PM 44.2189 149.9779 226° Southwest  Level FlightAware Approximate
Thu 07:28:00 PM 44.1301 149.8509 226° Southwest  Level FlightAware Approximate
Thu 07:29:00 PM 44.0411 149.7242 226° Southwest  Level FlightAware Approximate
Thu 07:30:00 PM 43.9519 149.5980 226° Southwest  Level FlightAware Approximate
Thu 07:31:00 PM 43.8627 149.4722 225° Southwest  Level FlightAware Approximate
Thu 07:32:00 PM 43.7733 149.3467 225° Southwest  Level FlightAware Approximate
Thu 07:33:00 PM 43.6837 149.2216 225° Southwest  Level FlightAware Approximate
Thu 07:34:00 PM 43.5940 149.0968 225° Southwest  Level FlightAware Approximate
Thu 07:35:00 PM 43.5042 148.9725 225° Southwest  Level FlightAware Approximate
Thu 07:35:23 PM 43.4330 148.8760 225° Southwest 435 501 37,000  Level FlightAware ADS-B
Thu 07:36:00 PM 43.4142 148.8486 225° Southwest  Level FlightAware Approximate
Thu 07:36:08 PM 43.3700 148.7880 225° Southwest 435 501 37,000  Level FlightAware ADS-B
Thu 07:36:59 PM 43.3060 148.7000 225° Southwest 435 501 37,000  Level FlightAware ADS-B
Thu 07:37:59 PM 43.2160 148.5780 225° Southwest 433 498 37,000  Level FlightAware ADS-B
Thu 07:38:38 PM 43.1540 148.4930 225° Southwest 432 497 37,000  Level FlightAware ADS-B
Thu 07:39:18 PM 43.0980 148.4180 224° Southwest 432 497 37,000  Level FlightAware ADS-B
Thu 07:40:04 PM 43.0350 148.3330 225° Southwest 432 497 37,000  Level FlightAware ADS-B
Thu 07:40:58 PM 42.9510 148.2190 225° Southwest 434 499 37,000  Level FlightAware ADS-B
Thu 07:41:40 PM 42.8950 148.1440 224° Southwest 437 503 37,000  Level FlightAware ADS-B
Thu 07:42:21 PM 42.8400 148.0690 225° Southwest 437 503 37,000  Level FlightAware ADS-B
Thu 07:43:05 PM 42.7710 147.9770 224° Southwest 441 507 37,000  Level FlightAware ADS-B
Thu 07:43:50 PM 42.7010 147.8850 224° Southwest 446 513 37,000  Level FlightAware ADS-B
Thu 07:44:30 PM 42.6410 147.8050 224° Southwest 445 512 37,000  Level FlightAware ADS-B
Thu 07:45:20 PM 42.5670 147.7070 224° Southwest 438 504 37,000  Level FlightAware ADS-B
Thu 07:46:20 PM 42.4790 147.5920 224° Southwest 436 502 37,000  Level FlightAware ADS-B
Thu 07:47:25 PM 42.3850 147.4680 224° Southwest 434 499 37,000  Level FlightAware ADS-B
Thu 07:48:05 PM 42.3250 147.3890 224° Southwest 432 497 37,000  Level FlightAware ADS-B
Thu 07:48:50 PM 42.2600 147.3050 224° Southwest 430 495 37,000  Level FlightAware ADS-B
Thu 07:49:25 PM 42.2110 147.2400 225° Southwest 430 495 37,000  Level FlightAware ADS-B
Thu 07:50:05 PM 42.1520 147.1640 224° Southwest 432 497 37,000  Level FlightAware ADS-B
Thu 07:50:50 PM 42.0860 147.0780 224° Southwest 434 499 37,000  Level FlightAware ADS-B
Thu 07:51:25 PM 42.0350 147.0120 224° Southwest 434 499 37,000  Level FlightAware ADS-B
Thu 07:52:10 PM 41.9710 146.9290 224° Southwest 434 499 37,000  Level FlightAware ADS-B
Thu 07:52:50 PM 41.9100 146.8510 224° Southwest 432 497 37,000  Level FlightAware ADS-B
Thu 07:53:35 PM 41.8440 146.7670 223° Southwest 432 497 37,000  Level FlightAware ADS-B
Thu 07:54:25 PM 41.7720 146.6730 224° Southwest 430 495 37,000  Level FlightAware ADS-B
Thu 07:55:05 PM 41.7130 146.5980 224° Southwest 429 494 37,000  Level FlightAware ADS-B
Thu 07:55:45 PM 41.6540 146.5240 223° Southwest 429 494 37,000  Level FlightAware ADS-B
Thu 07:56:35 PM 41.5820 146.4320 224° Southwest 439 505 37,000  Level FlightAware ADS-B
Thu 07:57:20 PM 41.5150 146.3470 224° Southwest 442 509 37,000  Level FlightAware ADS-B
Thu 07:58:05 PM 41.4480 146.2630 223° Southwest 443 510 37,000  Level FlightAware ADS-B
Thu 07:58:46 PM 41.3930 146.1930 224° Southwest 444 511 37,000  Level FlightAware ADS-B
Thu 07:59:25 PM 41.3330 146.1180 223° Southwest 442 509 37,000  Level FlightAware ADS-B
Thu 08:00:05 PM 41.2710 146.0400 223° Southwest 425 489 37,000  Level FlightAware ADS-B
Thu 08:00:50 PM 41.2070 145.9600 223° Southwest 417 480 37,000  Level FlightAware ADS-B
Thu 08:01:50 PM 41.1240 145.8570 223° Southwest 404 465 37,000  Level FlightAware ADS-B
Thu 08:02:25 PM 41.0760 145.7980 223° Southwest 408 470 37,000  Level FlightAware ADS-B
Thu 08:03:10 PM 41.0120 145.7180 223° Southwest 421 484 37,000  Level FlightAware ADS-B
Thu 08:03:51 PM 40.9540 145.6470 223° Southwest 419 482 37,000  Level FlightAware ADS-B
Thu 08:04:35 PM 40.8970 145.5760 223° Southwest 420 483 37,000  Level FlightAware ADS-B
Thu 08:06:09 PM 40.7600 145.4090 223° Southwest 423 487 37,000  Level FlightAware ADS-B
Thu 08:06:39 PM 40.7090 145.3460 223° Southwest 425 489 37,000  Level FlightAware ADS-B
Thu 08:07:19 PM 40.6510 145.2760 222° Southwest 435 501 37,000  Level FlightAware ADS-B
Thu 08:08:05 PM 40.5930 145.2040 223° Southwest 438 504 37,000  Level FlightAware ADS-B
Thu 08:08:41 PM 40.5470 145.1490 222° Southwest 438 504 37,000  Level FlightAware ADS-B
Thu 08:09:29 PM 40.4870 145.0750 223° Southwest 438 504 37,000  Level FlightAware ADS-B
Thu 08:10:05 PM 40.4410 145.0190 223° Southwest 438 504 37,000  Level FlightAware ADS-B
Thu 08:10:54 PM 40.3800 144.9430 224° Southwest 438 504 37,000  Level FlightAware ADS-B
Thu 08:13:00 PM 40.1831 144.7062 223° Southwest  Level FlightAware Approximate
Thu 08:14:00 PM 40.0891 144.5940 222° Southwest  Level FlightAware Approximate
Thu 08:15:00 PM 39.9951 144.4820 222° Southwest  Level FlightAware Approximate
Thu 08:16:00 PM 39.9010 144.3703 222° Southwest  Level FlightAware Approximate
Thu 08:17:00 PM 39.8067 144.2590 222° Southwest  Level FlightAware Approximate
Thu 08:18:00 PM 39.7123 144.1480 222° Southwest  Level FlightAware Approximate
Thu 08:18:57 PM 39.5460 143.9610 222° Southwest 480 552 37,000  Level FlightAware ADS-B
Thu 08:19:00 PM 39.6179 144.0372 222° Southwest  Level FlightAware Approximate
Thu 08:19:38 PM 39.4770 143.8830 221° Southwest 478 550 37,000  Level FlightAware ADS-B
Thu 08:20:27 PM 39.3740 143.8270 203° Southwest 494 568 37,000  Level FlightAware ADS-B
Thu 08:21:17 PM 39.2590 143.7800 198° South 502 578 37,000  Level FlightAware ADS-B
Thu 08:21:57 PM 39.1710 143.7440 198° South 503 579 37,000  Level FlightAware ADS-B
Thu 08:22:43 PM 39.0700 143.7020 198° South 506 582 37,000  Level FlightAware ADS-B
Thu 08:23:17 PM 39.0030 143.6740 198° South 506 582 37,000  Level FlightAware ADS-B
Thu 08:23:57 PM 38.9030 143.6340 197° South 504 580 37,000  Level FlightAware ADS-B
Thu 08:24:42 PM 38.8030 143.5930 198° South 503 579 37,000  Level FlightAware ADS-B
Thu 08:25:27 PM 38.7160 143.5580 197° South 503 579 37,000  Level FlightAware ADS-B
Thu 08:26:12 PM 38.6080 143.5140 198° South 492 566 37,000  Level FlightAware ADS-B
Thu 08:26:47 PM 38.5280 143.4820 197° South 502 578 37,000  Level FlightAware ADS-B
Thu 08:27:37 PM 38.4170 143.4380 197° South 502 578 37,000  Level FlightAware ADS-B
Thu 08:28:17 PM 38.3260 143.4010 198° South 507 583 37,000  Level FlightAware ADS-B
Thu 08:29:02 PM 38.2310 143.3630 197° South 508 585 37,000  Level FlightAware ADS-B
Thu 08:29:42 PM 38.1360 143.3250 197° South 506 582 37,000  Level FlightAware ADS-B
Thu 08:30:22 PM 38.0460 143.2890 197° South 506 582 37,000  Level FlightAware ADS-B
Thu 08:31:02 PM 37.9580 143.2540 197° South 507 583 37,000  Level FlightAware ADS-B
Thu 08:31:42 PM 37.8680 143.2180 198° South 509 586 37,000  Level FlightAware ADS-B
Thu 08:32:17 PM 37.7890 143.1870 197° South 509 586 37,000 80 Level FlightAware ADS-B
Thu 08:32:57 PM 37.7000 143.1520 197° South 509 586 37,100  Climbing FlightAware ADS-B
Thu 08:33:37 PM 37.6100 143.1170 197° South 508 585 37,000 -75 Descending FlightAware ADS-B
Thu 08:34:17 PM 37.5190 143.0820 197° South 508 585 37,000  Level FlightAware ADS-B
Thu 08:35:03 PM 37.4200 143.0430 197° South 507 583 37,000  Level FlightAware ADS-B
Thu 08:35:47 PM 37.3190 143.0010 198° South 502 578 37,000  Level FlightAware ADS-B
Thu 08:36:27 PM 37.2330 142.9570 202° Southwest 502 578 37,000 -71 Level FlightAware ADS-B
Thu 08:37:12 PM 37.1360 142.9080 202° Southwest 500 575 36,900  Descending FlightAware ADS-B
Thu 08:37:42 PM 37.0710 142.8750 202° Southwest 501 577 37,000 80 Climbing FlightAware ADS-B
Thu 08:38:27 PM 36.9750 142.8260 202° Southwest 504 580 37,000  Level FlightAware ADS-B
Thu 08:39:32 PM 36.8330 142.7550 202° Southwest 501 577 37,000 57 Level FlightAware ADS-B
Thu 08:40:12 PM 36.7460 142.7120 202° Southwest 505 581 37,100  Climbing FlightAware ADS-B
Thu 08:40:57 PM 36.6460 142.6620 202° Southwest 507 583 37,000 -71 Descending FlightAware ADS-B
Thu 08:41:37 PM 36.5590 142.6150 203° Southwest 511 588 37,000  Level FlightAware ADS-B
Thu 08:42:17 PM 36.4770 142.5580 209° Southwest 501 577 37,000  Level FlightAware ADS-B
Thu 08:42:57 PM 36.3950 142.5010 209° Southwest 500 575 37,000  Level FlightAware ADS-B
Thu 08:43:42 PM 36.3030 142.4370 209° Southwest 497 572 37,000  Level FlightAware ADS-B
Thu 08:44:17 PM 36.2320 142.3880 209° Southwest 496 571 37,000  Level FlightAware ADS-B
Thu 08:44:57 PM 36.1500 142.3310 209° Southwest 497 572 37,000 -847 Level FlightAware ADS-B
Thu 08:45:42 PM 36.0580 142.2680 209° Southwest 519 597 35,800 -2,000 Descending FlightAware ADS-B
Thu 08:46:18 PM 35.9930 142.2020 219° Southwest 502 578 34,300 -3,671 Descending FlightAware ADS-B
Thu 08:47:07 PM 35.9440 142.0780 244° Southwest 484 557 30,600 -4,045 Descending FlightAware ADS-B
Thu 08:47:47 PM 35.9340 141.9700 264° West 466 536 28,300 -4,165 Descending FlightAware ADS-B
Thu 08:48:32 PM 35.9250 141.8510 265° West 468 539 24,700 -4,659 Descending FlightAware ADS-B
Thu 08:49:12 PM 35.9170 141.7450 265° West 465 535 21,700 -3,325 Descending FlightAware ADS-B
Thu 08:49:55 PM 35.9090 141.6420 265° West 435 501 20,100 -2,325 Descending FlightAware ADS-B
Thu 08:50:32 PM 35.9020 141.5530 264° West 416 479 18,600 -2,426 Descending FlightAware ADS-B
Thu 08:51:29 PM 35.8920 141.4200 265° West 392 451 16,300 -2,220 Descending FlightAware ADS-B
Thu 08:52:12 PM 35.8840 141.3370 263° West 381 438 14,900 -2,121 Descending FlightAware ADS-B
Thu 08:53:08 PM 35.8380 141.2200 244° Southwest 361 415 12,800 -2,267 Descending FlightAware ADS-B
Thu 08:53:42 PM 35.8120 141.1590 242° Southwest 351 404 11,500 -1,600 Descending FlightAware ADS-B
Thu 08:54:23 PM 35.7800 141.0910 240° Southwest 321 369 10,800 -1,047 Descending FlightAware ADS-B
Thu 08:55:08 PM 35.7520 141.0300 241° Southwest 289 333 10,000 -1,286 Descending FlightAware ADS-B
Thu 08:55:33 PM 35.7320 140.9890 239° Southwest 277 319 9,300 -1,676 Descending FlightAware ADS-B
Thu 08:56:16 PM 35.7050 140.9370 237° Southwest 293 337 8,100 -1,714 Descending FlightAware ADS-B
Thu 08:56:43 PM 35.6830 140.8900 240° Southwest 289 333 7,300 -1,463 Descending FlightAware ADS-B
Thu 08:57:38 PM 35.6480 140.8130 241° Southwest 277 319 6,100 -889 Descending FlightAware ADS-B
Thu 08:58:04 PM 35.6350 140.7830 242° Southwest 277 319 6,100 -1,424 Level FlightAware ADS-B
Thu 08:58:37 PM 35.6140 140.7350 242° Southwest 277 319 4,700 -1,714 Descending FlightAware ADS-B
Thu 08:59:07 PM 35.6020 140.6970 249° West 267 307 4,300 -750 Descending FlightAware ADS-B
Thu 08:59:33 PM 35.5910 140.6620 249° West 254 292 4,000 -1,015 Descending FlightAware ADS-B
Thu 09:00:12 PM 35.5840 140.5990 262° West 228 262 3,200 -676 Descending FlightAware ADS-B
Thu 09:00:44 PM 35.5830 140.5590 268° West 211 243 3,200 -97 Level FlightAware ADS-B
Thu 09:01:14 PM 35.5960 140.5310 300° West 179 206 3,100 -107 Descending FlightAware ADS-B
Thu 09:01:40 PM 35.6130 140.5160 324° Northwest 175 201 3,100  Level FlightAware ADS-B
Thu 09:02:08 PM 35.6320 140.5030 331° Northwest 164 189 3,100  Level FlightAware ADS-B
Thu 09:02:36 PM 35.6500 140.4900 330° Northwest 149 171 3,100 -109 Level FlightAware ADS-B
Thu 09:03:03 PM 35.6650 140.4790 329° Northwest 149 171 3,000 -643 Descending FlightAware ADS-B
Thu 09:03:32 PM 35.6830 140.4670 332° Northwest 143 165 2,500 -842 Descending FlightAware ADS-B
Thu 09:04:00 PM 35.6990 140.4550 329° Northwest 152 175 2,200 -737 Descending FlightAware ADS-B
Thu 09:04:29 PM 35.7150 140.4430 329° Northwest 148 170 1,800 -737 Descending FlightAware ADS-B
Thu 09:04:57 PM 35.7320 140.4310 330° Northwest 147 169 1,500 -462 Descending FlightAware ADS-B
Thu 09:05:34 PM 35.7520 140.4160 329° Northwest 147 169 1,300 -324 Descending FlightAware ADS-B
Thu 09:08:00 PM 35.7500 140.3833 253° West  Level FlightAware Approximate
Thu 09:09:00 PM 35.7647 140.3864 253° West  Level Estimated
Thu 09:10:00 PM 35.7647 140.3864 253° West  Level Estimated
Thu 09:11:00 PM 35.7647 140.3864 253° West  Level Estimated
Thu 09:12:00 PM 35.7647 140.3864 253° West  Level Estimated
Thu 09:13:00 PM 35.7647 140.3864 253° West  Level Estimated
Thu 09:14:00 PM 35.7647 140.3864 253° West  Level Estimated
Thu 09:15:00 PM 35.7647 140.3864 253° West  Level Estimated
Thu 09:16:00 PM 35.7647 140.3864 253° West  Level Estimated
Thu 09:17:00 PM 35.7647 140.3864 253° West  Level Estimated
Thu 09:18:00 PM 35.7647 140.3864 253° West  Level Estimated

Login

Don't have an account? Register now (free) for customized features, flight alerts, and more!